createdAt,value
2022-11-01T00:02:12.310Z,89.88
2022-11-01T00:04:40.218Z,89.83
2022-11-01T00:07:07.298Z,90.19
2022-11-01T00:09:35.019Z,89.70
2022-11-01T00:12:02.228Z,89.92
2022-11-01T00:14:29.465Z,89.79
2022-11-01T00:16:56.863Z,89.55
2022-11-01T00:19:24.194Z,89.95
2022-11-01T00:21:51.281Z,89.66
2022-11-01T00:24:18.350Z,90.34
2022-11-01T00:26:45.778Z,90.39
2022-11-01T00:29:13.182Z,90.53
2022-11-01T00:31:40.909Z,90.42
2022-11-01T00:34:08.406Z,90.40
2022-11-01T00:36:36.447Z,90.84
2022-11-01T00:39:03.992Z,90.66
2022-11-01T00:41:31.234Z,90.92
2022-11-01T00:43:58.438Z,91.34
2022-11-01T00:46:25.838Z,91.39
2022-11-01T00:48:52.940Z,91.49
2022-11-01T00:51:21.693Z,91.48
2022-11-01T00:53:49.000Z,91.60
2022-11-01T00:56:16.554Z,91.26
2022-11-01T00:58:44.042Z,91.55
2022-11-01T01:01:11.324Z,91.40
2022-11-01T01:03:39.286Z,91.54
2022-11-01T01:06:06.445Z,91.63
2022-11-01T01:08:33.785Z,91.23
2022-11-01T01:11:01.157Z,91.88
2022-11-01T01:13:28.223Z,91.96
2022-11-01T01:15:55.804Z,91.50
2022-11-01T01:18:22.987Z,92.27
2022-11-01T01:20:50.088Z,91.76
2022-11-01T01:23:17.440Z,92.10
2022-11-01T01:25:44.685Z,91.64
2022-11-01T01:28:11.806Z,92.14
2022-11-01T01:30:42.616Z,92.06
2022-11-01T01:35:44.025Z,91.93
2022-11-01T01:38:11.417Z,92.11
2022-11-01T01:40:38.704Z,91.43
2022-11-01T01:43:06.037Z,91.56
2022-11-01T01:45:39.610Z,91.34
2022-11-01T01:48:27.807Z,91.56
2022-11-01T01:51:02.918Z,91.31
2022-11-01T01:53:32.330Z,91.59
2022-11-01T01:56:06.652Z,91.21
2022-11-01T01:58:42.173Z,91.11
2022-11-01T02:01:09.772Z,91.32
2022-11-01T02:03:38.859Z,91.91
2022-11-01T02:06:15.492Z,91.97
2022-11-01T02:08:45.126Z,91.88
2022-11-01T02:11:14.845Z,91.01
2022-11-01T02:13:42.201Z,91.40
2022-11-01T02:16:23.469Z,92.26
2022-11-01T02:19:09.174Z,92.55
2022-11-01T02:22:01.104Z,92.47
2022-11-01T02:24:54.938Z,91.78
2022-11-01T02:27:42.898Z,92.05
2022-11-01T02:30:23.178Z,92.38
2022-11-01T02:33:13.627Z,91.87
2022-11-01T02:36:05.062Z,91.91
2022-11-01T02:38:40.596Z,91.96
2022-11-01T02:41:24.186Z,91.57
2022-11-01T02:44:00.342Z,92.33
2022-11-01T02:46:49.763Z,92.62
2022-11-01T02:49:19.646Z,91.65
2022-11-01T02:51:47.457Z,91.82
2022-11-01T02:54:32.095Z,92.57
2022-11-01T02:57:04.819Z,92.04
2022-11-01T02:59:44.804Z,92.22
2022-11-01T03:02:39.871Z,92.09
2022-11-01T03:05:09.752Z,91.86
2022-11-01T03:07:36.917Z,91.60
2022-11-01T03:10:04.650Z,92.47
2022-11-01T03:12:36.977Z,92.22
2022-11-01T03:15:21.232Z,92.44
2022-11-01T03:18:05.609Z,91.83
2022-11-01T03:20:48.136Z,92.27
2022-11-01T03:23:22.805Z,91.76
2022-11-01T03:25:56.428Z,91.63
2022-11-01T03:28:36.593Z,92.97
2022-11-01T03:31:26.116Z,92.95
2022-11-01T03:33:57.036Z,92.94
2022-11-01T03:36:31.170Z,92.84
2022-11-01T03:39:03.198Z,92.12
2022-11-01T03:41:36.739Z,92.07
2022-11-01T03:44:05.204Z,92.35
2022-11-01T03:46:33.028Z,93.08
2022-11-01T03:49:00.313Z,92.58
2022-11-01T03:51:27.312Z,92.73
2022-11-01T03:53:57.163Z,92.57
2022-11-01T03:56:24.428Z,92.85
2022-11-01T03:58:51.598Z,92.17
2022-11-01T04:01:18.978Z,91.78
2022-11-01T04:03:46.223Z,92.23
2022-11-01T04:06:13.366Z,91.89
2022-11-01T04:08:40.611Z,92.59
2022-11-01T04:11:07.831Z,91.80
2022-11-01T04:13:34.851Z,92.52
2022-11-01T04:16:20.356Z,91.98
2022-11-01T04:19:06.075Z,92.98
2022-11-01T04:21:33.510Z,92.62
2022-11-01T04:24:00.807Z,92.35
2022-11-01T04:26:27.895Z,92.65
2022-11-01T04:28:57.989Z,93.23
2022-11-01T04:31:31.362Z,93.02
2022-11-01T04:33:59.623Z,92.81
2022-11-01T04:36:27.436Z,92.87
2022-11-01T04:38:57.268Z,93.22
2022-11-01T04:41:30.627Z,92.88
2022-11-01T04:44:00.270Z,92.37
2022-11-01T04:46:32.023Z,92.95
2022-11-01T04:48:59.254Z,92.77
2022-11-01T04:51:26.422Z,93.46
2022-11-01T04:53:53.587Z,93.15
2022-11-01T04:56:20.686Z,93.37
2022-11-01T04:58:47.614Z,93.19
2022-11-01T05:01:15.377Z,92.85
2022-11-01T05:03:42.628Z,92.32
2022-11-01T05:06:09.924Z,93.60
2022-11-01T05:08:37.008Z,93.57
2022-11-01T05:11:04.297Z,93.03
2022-11-01T05:13:31.306Z,92.57
2022-11-01T05:16:18.450Z,93.63
2022-11-01T05:18:46.281Z,93.48
2022-11-01T05:21:13.288Z,93.38
2022-11-01T05:23:40.276Z,93.39
2022-11-01T05:26:07.570Z,92.78
2022-11-01T05:28:35.087Z,92.92
2022-11-01T05:31:02.395Z,93.89
2022-11-01T05:33:29.314Z,93.77
2022-11-01T05:35:56.430Z,93.08
2022-11-01T05:38:23.638Z,93.67
2022-11-01T05:40:50.793Z,93.36
2022-11-01T05:43:17.776Z,93.53
2022-11-01T05:45:45.100Z,92.85
2022-11-01T05:48:12.336Z,92.99
2022-11-01T05:50:39.507Z,92.78
2022-11-01T05:53:08.399Z,93.65
2022-11-01T05:55:36.731Z,92.87
2022-11-01T05:58:04.132Z,93.32
2022-11-01T06:00:31.832Z,93.15
2022-11-01T06:02:59.654Z,92.77
2022-11-01T06:05:28.185Z,93.06
2022-11-01T06:07:55.484Z,93.09
2022-11-01T06:10:22.810Z,93.63
2022-11-01T06:12:49.919Z,93.71
2022-11-01T06:15:17.026Z,93.67
2022-11-01T06:17:43.994Z,93.81
2022-11-01T06:20:11.949Z,94.93
2022-11-01T06:22:39.258Z,95.78
2022-11-01T06:25:07.162Z,97.38
2022-11-01T06:27:34.088Z,99.50
2022-11-01T06:30:01.207Z,100.00
2022-11-01T06:32:28.104Z,100.00
2022-11-01T06:34:55.109Z,100.00
2022-11-01T06:37:22.139Z,100.00
2022-11-01T06:39:49.488Z,100.00
2022-11-01T06:42:16.859Z,100.00
2022-11-01T06:44:44.148Z,100.00
2022-11-01T06:47:13.952Z,100.00
2022-11-01T06:49:41.568Z,100.00
2022-11-01T06:52:09.359Z,100.00
2022-11-01T06:54:36.565Z,100.00
2022-11-01T06:57:03.625Z,100.00
2022-11-01T06:59:30.495Z,100.00
2022-11-01T07:01:57.749Z,100.00
2022-11-01T07:04:27.336Z,100.00
2022-11-01T07:06:54.301Z,97.47
2022-11-01T07:09:21.299Z,96.60
2022-11-01T07:11:48.225Z,95.42
2022-11-01T07:14:15.176Z,91.98
2022-11-01T07:16:42.211Z,90.96
2022-11-01T07:19:09.248Z,88.65
2022-11-01T07:21:36.308Z,86.71
2022-11-01T07:24:03.330Z,84.18
2022-11-01T07:26:30.486Z,82.75
2022-11-01T07:28:57.415Z,80.58
2022-11-01T07:31:25.642Z,79.80
2022-11-01T07:33:52.729Z,78.35
2022-11-01T07:36:20.123Z,76.88
2022-11-01T07:38:47.223Z,76.86
2022-11-01T07:41:14.275Z,76.50
2022-11-01T07:43:41.440Z,75.02
2022-11-01T07:46:08.640Z,74.66
2022-11-01T07:48:37.145Z,73.78
2022-11-01T07:51:06.357Z,73.04
2022-11-01T07:53:34.289Z,72.67
2022-11-01T07:56:02.088Z,71.57
2022-11-01T07:58:29.357Z,70.91
2022-11-01T08:00:56.508Z,69.55
2022-11-01T08:03:24.337Z,67.10
2022-11-01T08:05:51.814Z,66.42
2022-11-01T08:08:19.255Z,66.31
2022-11-01T08:10:46.614Z,65.90
2022-11-01T08:13:19.554Z,65.34
2022-11-01T08:15:48.236Z,64.52
2022-11-01T08:18:16.476Z,63.87
2022-11-01T08:20:45.695Z,63.09
2022-11-01T08:23:13.397Z,61.48
2022-11-01T08:25:40.302Z,60.76
2022-11-01T08:28:11.358Z,59.48
2022-11-01T08:30:40.498Z,58.64
2022-11-01T08:33:07.732Z,58.02
2022-11-01T08:35:38.144Z,56.72
2022-11-01T08:38:05.553Z,56.83
2022-11-01T08:40:33.574Z,55.74
2022-11-01T08:43:01.147Z,55.99
2022-11-01T08:45:29.068Z,54.88
2022-11-01T08:48:03.613Z,54.72
2022-11-01T08:50:32.079Z,53.37
2022-11-01T08:52:59.222Z,52.91
2022-11-01T08:55:26.652Z,53.08
2022-11-01T08:57:53.700Z,52.38
2022-11-01T09:00:21.693Z,52.04
2022-11-01T09:02:48.696Z,50.03
2022-11-01T09:05:15.919Z,49.83
2022-11-01T09:07:42.870Z,49.49
2022-11-01T09:10:10.771Z,48.07
2022-11-01T09:12:38.415Z,47.87
2022-11-01T09:15:06.113Z,48.22
2022-11-01T09:17:33.241Z,46.83
2022-11-01T09:20:00.216Z,46.83
2022-11-01T09:22:27.489Z,46.52
2022-11-01T09:24:57.173Z,45.70
2022-11-01T09:27:24.839Z,45.20
2022-11-01T09:29:52.161Z,44.83
2022-11-01T09:32:21.442Z,44.51
2022-11-01T09:34:49.573Z,43.90
2022-11-01T09:37:17.190Z,44.13
2022-11-01T09:39:44.193Z,43.59
2022-11-01T09:42:21.981Z,44.07
2022-11-01T09:44:58.049Z,43.63
2022-11-01T09:47:28.684Z,42.71
2022-11-01T09:50:12.977Z,42.17
2022-11-01T09:52:41.396Z,41.45
2022-11-01T09:55:16.749Z,42.02
2022-11-01T09:58:14.794Z,40.66
2022-11-01T10:00:49.045Z,40.84
2022-11-01T10:03:21.380Z,40.51
2022-11-01T10:06:09.968Z,41.61
2022-11-01T10:08:36.827Z,41.46
2022-11-01T10:11:21.899Z,40.83
2022-11-01T10:14:05.256Z,40.76
2022-11-01T10:16:42.260Z,40.57
2022-11-01T10:19:19.541Z,40.30
2022-11-01T10:21:56.993Z,41.00
2022-11-01T10:24:26.861Z,39.51
2022-11-01T10:27:15.369Z,40.11
2022-11-01T10:29:57.867Z,39.51
2022-11-01T10:32:34.006Z,38.38
2022-11-01T10:35:07.256Z,38.20
2022-11-01T10:37:43.733Z,38.77
2022-11-01T10:40:34.188Z,38.85
2022-11-01T10:43:02.270Z,38.86
2022-11-01T10:45:31.118Z,39.22
2022-11-01T10:47:59.072Z,39.02
2022-11-01T10:50:29.222Z,38.25
2022-11-01T10:53:18.786Z,38.42
2022-11-01T10:55:53.032Z,38.56
2022-11-01T10:58:29.019Z,38.40
2022-11-01T11:00:56.451Z,38.38
2022-11-01T11:03:25.250Z,38.48
2022-11-01T11:05:54.609Z,37.76
2022-11-01T11:08:24.104Z,38.31
2022-11-01T11:10:52.378Z,37.86
2022-11-01T11:13:23.046Z,38.14
2022-11-01T11:16:06.422Z,37.47
2022-11-01T11:18:39.305Z,37.14
2022-11-01T11:21:14.053Z,37.50
2022-11-01T11:23:46.466Z,37.85
2022-11-01T11:26:17.948Z,37.22
2022-11-01T11:28:57.298Z,37.16
2022-11-01T11:31:31.724Z,37.18
2022-11-01T11:34:17.033Z,36.51
2022-11-01T11:36:49.985Z,36.98
2022-11-01T11:39:57.725Z,37.36
2022-11-01T11:42:30.606Z,36.39
2022-11-01T11:45:20.615Z,36.08
2022-11-01T11:47:50.974Z,36.50
2022-11-01T11:50:21.169Z,36.65
2022-11-01T11:52:52.006Z,36.58
2022-11-01T11:55:48.025Z,37.04
2022-11-01T11:58:35.491Z,36.50
2022-11-01T12:01:08.200Z,37.31
2022-11-01T12:03:54.726Z,36.84
2022-11-01T12:06:25.455Z,36.77
2022-11-01T12:08:55.260Z,37.33
2022-11-01T12:11:37.359Z,37.32
2022-11-01T12:14:24.620Z,36.62
2022-11-01T12:16:51.673Z,36.61
2022-11-01T12:19:26.729Z,37.09
2022-11-01T12:21:54.924Z,36.92
2022-11-01T12:24:47.205Z,36.95
2022-11-01T12:27:26.153Z,36.93
2022-11-01T12:30:00.284Z,37.45
2022-11-01T12:32:33.817Z,37.15
2022-11-01T12:35:06.637Z,37.06
2022-11-01T12:38:13.242Z,37.79
2022-11-01T12:40:43.842Z,37.66
2022-11-01T12:43:23.539Z,36.87
2022-11-01T12:46:11.790Z,36.79
2022-11-01T12:49:03.103Z,36.49
2022-11-01T12:51:52.811Z,38.04
2022-11-01T12:54:29.372Z,37.04
2022-11-01T12:56:57.085Z,37.30
2022-11-01T12:59:37.759Z,36.80
2022-11-01T13:02:31.288Z,36.77
2022-11-01T13:05:07.863Z,36.78
2022-11-01T13:07:58.493Z,37.43
2022-11-01T13:10:36.555Z,37.11
2022-11-01T13:13:47.996Z,37.20
2022-11-01T13:16:18.991Z,37.17
2022-11-01T13:19:14.388Z,37.38
2022-11-01T13:21:55.011Z,37.04
2022-11-01T13:24:37.553Z,37.43
2022-11-01T13:27:11.773Z,37.84
2022-11-01T13:29:52.804Z,37.15
2022-11-01T13:32:43.643Z,36.86
2022-11-01T13:35:29.212Z,37.52
2022-11-01T13:38:01.384Z,37.12
2022-11-01T13:40:36.045Z,37.21
2022-11-01T13:43:27.526Z,37.58
2022-11-01T13:46:29.514Z,37.96
2022-11-01T13:49:28.609Z,37.97
2022-11-01T13:52:24.293Z,38.43
2022-11-01T13:55:22.003Z,37.86
2022-11-01T13:57:49.229Z,38.01
2022-11-01T14:00:44.870Z,38.11
2022-11-01T14:03:27.360Z,38.29
2022-11-01T14:06:36.621Z,38.85
2022-11-01T14:09:28.513Z,39.52
2022-11-01T14:12:04.698Z,39.17
2022-11-01T14:14:32.104Z,39.13
2022-11-01T14:17:20.954Z,39.91
2022-11-01T14:20:10.886Z,39.86
2022-11-01T14:22:40.601Z,39.89
2022-11-01T14:25:14.024Z,40.61
2022-11-01T14:27:50.459Z,41.57
2022-11-01T14:30:23.963Z,43.23
2022-11-01T14:32:57.532Z,44.06
2022-11-01T14:35:28.473Z,44.54
2022-11-01T14:38:03.440Z,45.09
2022-11-01T14:40:33.781Z,46.48
2022-11-01T14:43:24.484Z,46.90
2022-11-01T14:45:58.046Z,48.69
2022-11-01T14:49:00.296Z,49.82
2022-11-01T14:51:33.183Z,50.37
2022-11-01T14:54:16.163Z,50.72
2022-11-01T14:56:49.855Z,51.11
2022-11-01T14:59:28.807Z,51.98
2022-11-01T15:02:03.012Z,52.30
2022-11-01T15:04:38.262Z,53.28
2022-11-01T15:07:19.582Z,54.68
2022-11-01T15:10:12.724Z,55.18
2022-11-01T15:12:49.909Z,56.14
2022-11-01T15:15:23.974Z,57.15
2022-11-01T15:17:57.843Z,58.15
2022-11-01T15:20:38.793Z,57.81
2022-11-01T15:23:14.961Z,59.65
2022-11-01T15:25:43.550Z,60.08
2022-11-01T15:28:22.992Z,60.65
2022-11-01T15:30:58.240Z,61.36
2022-11-01T15:33:35.991Z,61.82
2022-11-01T15:36:20.488Z,62.53
2022-11-01T15:38:56.533Z,62.49
2022-11-01T15:41:32.481Z,63.33
2022-11-01T15:44:06.314Z,63.45
2022-11-01T15:46:43.698Z,64.22
2022-11-01T15:49:25.039Z,65.10
2022-11-01T15:51:56.472Z,65.70
2022-11-01T15:54:42.957Z,65.56
2022-11-01T15:57:24.573Z,66.47
2022-11-01T15:59:57.783Z,67.24
2022-11-01T16:02:35.701Z,67.97
2022-11-01T16:05:03.505Z,68.33
2022-11-01T16:07:33.605Z,68.56
2022-11-01T16:10:03.860Z,68.93
2022-11-01T16:12:36.562Z,69.03
2022-11-01T16:15:07.762Z,70.37
2022-11-01T16:17:40.673Z,70.46
2022-11-01T16:20:41.301Z,70.83
2022-11-01T16:23:12.590Z,71.56
2022-11-01T16:25:40.081Z,72.18
2022-11-01T16:28:28.875Z,72.50
2022-11-01T16:30:58.015Z,72.73
2022-11-01T16:33:28.053Z,72.87
2022-11-01T16:36:00.714Z,73.42
2022-11-01T16:38:33.741Z,73.21
2022-11-01T16:41:20.887Z,73.37
2022-11-01T16:43:52.526Z,74.01
2022-11-01T16:46:20.891Z,74.73
2022-11-01T16:49:00.165Z,75.02
2022-11-01T16:51:29.374Z,75.28
2022-11-01T16:53:58.553Z,74.57
2022-11-01T16:56:37.112Z,74.64
2022-11-01T16:59:42.496Z,75.08
2022-11-01T17:02:25.306Z,75.75
2022-11-01T17:04:59.217Z,76.07
2022-11-01T17:07:26.757Z,76.47
2022-11-01T17:09:53.797Z,76.93
2022-11-01T17:12:21.654Z,76.56
2022-11-01T17:14:57.542Z,76.97
2022-11-01T17:18:33.784Z,77.81
2022-11-01T17:20:53.135Z,77.15
2022-11-01T17:23:23.831Z,77.72
2022-11-01T17:25:53.972Z,78.21
2022-11-01T17:28:24.235Z,78.04
2022-11-01T17:30:51.955Z,79.00
2022-11-01T17:33:20.820Z,78.75
2022-11-01T17:35:48.811Z,78.74
2022-11-01T17:38:21.159Z,79.05
2022-11-01T17:40:49.892Z,79.85
2022-11-01T17:43:19.054Z,79.15
2022-11-01T17:45:47.226Z,79.41
2022-11-01T17:48:14.895Z,79.55
2022-11-01T17:50:42.472Z,79.32
2022-11-01T17:53:13.321Z,79.73
2022-11-01T17:55:43.967Z,79.76
2022-11-01T17:58:11.744Z,80.42
2022-11-01T18:00:43.163Z,80.47
2022-11-01T18:03:10.894Z,81.00
2022-11-01T18:05:37.939Z,81.50
2022-11-01T18:08:16.541Z,80.55
2022-11-01T18:11:15.762Z,81.81
2022-11-01T18:14:04.030Z,81.30
2022-11-01T18:16:48.928Z,81.81
2022-11-01T18:19:30.287Z,81.64
2022-11-01T18:22:20.067Z,81.56
2022-11-01T18:24:53.882Z,81.67
2022-11-01T18:27:31.245Z,82.32
2022-11-01T18:29:58.174Z,82.29
2022-11-01T18:32:32.388Z,82.00
2022-11-01T18:35:05.760Z,81.73
2022-11-01T18:37:51.508Z,82.64
2022-11-01T18:40:29.663Z,82.90
2022-11-01T18:42:56.942Z,82.40
2022-11-01T18:45:33.065Z,82.63
2022-11-01T18:48:13.577Z,83.39
2022-11-01T18:50:40.501Z,83.13
2022-11-01T18:53:14.836Z,83.45
2022-11-01T18:55:44.652Z,82.54
2022-11-01T18:58:16.867Z,83.06
2022-11-01T19:00:44.603Z,83.78
2022-11-01T19:03:13.739Z,83.91
2022-11-01T19:05:42.389Z,84.14
2022-11-01T19:08:25.680Z,84.42
2022-11-01T19:10:54.470Z,84.08
2022-11-01T19:13:28.899Z,83.73
2022-11-01T19:15:58.265Z,85.00
2022-11-01T19:18:25.600Z,84.65
2022-11-01T19:20:58.624Z,84.14
2022-11-01T19:23:32.414Z,84.05
2022-11-01T19:25:59.460Z,84.11
2022-11-01T19:28:35.437Z,84.18
2022-11-01T19:31:27.607Z,83.99
2022-11-01T19:34:02.653Z,84.91
2022-11-01T19:36:40.752Z,84.38
2022-11-01T19:39:22.139Z,84.05
2022-11-01T19:41:49.309Z,84.42
2022-11-01T19:44:21.750Z,85.00
2022-11-01T19:46:49.266Z,84.82
2022-11-01T19:49:27.757Z,84.47
2022-11-01T19:52:24.511Z,84.72
2022-11-01T19:54:53.476Z,84.98
2022-11-01T19:57:33.965Z,84.91
2022-11-01T20:00:25.302Z,85.40
2022-11-01T20:02:55.433Z,85.21
2022-11-01T20:05:33.480Z,85.79
2022-11-01T20:08:22.416Z,86.00
2022-11-01T20:10:49.605Z,85.79
2022-11-01T20:13:16.960Z,85.96
2022-11-01T20:15:44.556Z,85.87
2022-11-01T20:18:11.551Z,85.87
2022-11-01T20:20:44.349Z,86.36
2022-11-01T20:23:25.884Z,86.39
2022-11-01T20:25:54.116Z,86.23
2022-11-01T20:28:21.317Z,86.21
2022-11-01T20:30:48.206Z,86.48
2022-11-01T20:33:16.369Z,86.65
2022-11-01T20:35:43.870Z,86.31
2022-11-01T20:38:11.075Z,87.11
2022-11-01T20:40:38.049Z,86.51
2022-11-01T20:43:06.745Z,87.22
2022-11-01T20:45:37.529Z,86.87
2022-11-01T20:48:07.713Z,87.14
2022-11-01T20:50:35.763Z,87.29
2022-11-01T20:53:02.883Z,90.31
2022-11-01T20:55:29.984Z,90.39
2022-11-01T20:57:57.135Z,90.17
2022-11-01T21:00:24.257Z,90.04
2022-11-01T21:02:51.708Z,89.53
2022-11-01T21:05:23.274Z,89.83
2022-11-01T21:07:55.100Z,89.33
2022-11-01T21:10:35.075Z,89.48
2022-11-01T21:13:07.501Z,88.70
2022-11-01T21:15:39.368Z,88.63
2022-11-01T21:18:09.824Z,88.54
2022-11-01T21:20:42.748Z,88.71
2022-11-01T21:23:21.579Z,88.31
2022-11-01T21:26:00.808Z,88.20
2022-11-01T21:28:34.527Z,88.04
2022-11-01T21:31:23.218Z,88.08
2022-11-01T21:33:54.419Z,87.92
2022-11-01T21:36:21.626Z,88.22
2022-11-01T21:39:00.176Z,88.05
2022-11-01T21:41:42.548Z,88.17
2022-11-01T21:44:18.651Z,88.28
2022-11-01T21:46:54.919Z,88.28
2022-11-01T21:49:33.365Z,88.46
2022-11-01T21:52:02.619Z,88.15
2022-11-01T21:54:31.656Z,88.31
2022-11-01T21:56:58.890Z,88.43
2022-11-01T21:59:27.209Z,88.47
2022-11-01T22:01:56.347Z,88.90
2022-11-01T22:04:28.490Z,88.63
2022-11-01T22:07:03.937Z,89.02
2022-11-01T22:09:32.206Z,89.62
2022-11-01T22:11:59.645Z,89.53
2022-11-01T22:14:26.573Z,89.12
2022-11-01T22:16:53.663Z,90.13
2022-11-01T22:19:21.022Z,89.23
2022-11-01T22:21:48.136Z,90.10
2022-11-01T22:24:15.067Z,89.13
2022-11-01T22:26:42.111Z,89.79
2022-11-01T22:29:09.390Z,89.15
2022-11-01T22:31:36.432Z,89.37
2022-11-01T22:34:03.966Z,89.79
2022-11-01T22:36:34.895Z,90.37
2022-11-01T22:39:27.051Z,90.22
2022-11-01T22:41:55.200Z,90.04
2022-11-01T22:44:30.732Z,90.93
2022-11-01T22:47:00.110Z,91.01
2022-11-01T22:49:31.093Z,91.19
2022-11-01T22:52:03.457Z,91.06
2022-11-01T22:54:38.934Z,90.75
2022-11-01T22:57:08.956Z,91.24
2022-11-01T22:59:48.360Z,90.94
2022-11-01T23:02:37.567Z,90.65
2022-11-01T23:05:07.688Z,90.42
2022-11-01T23:07:49.167Z,90.36
2022-11-01T23:10:46.036Z,90.19
2022-11-01T23:13:31.465Z,90.06
2022-11-01T23:16:11.057Z,90.07
2022-11-01T23:18:40.568Z,90.22
2022-11-01T23:21:09.293Z,89.95
2022-11-01T23:23:41.072Z,90.31
2022-11-01T23:26:08.695Z,90.05
2022-11-01T23:28:37.484Z,89.13
2022-11-01T23:31:05.820Z,89.77
2022-11-01T23:33:52.259Z,90.50
2022-11-01T23:36:23.936Z,90.20
2022-11-01T23:39:04.017Z,90.18
2022-11-01T23:41:41.190Z,89.87
2022-11-01T23:44:37.925Z,89.90
2022-11-01T23:47:40.441Z,90.08
2022-11-01T23:50:16.582Z,90.36
2022-11-01T23:52:47.193Z,90.38
2022-11-01T23:55:25.481Z,89.91
2022-11-01T23:58:04.281Z,90.38
